createdAt,value
2022-08-08T13:05:25.818Z,3.70
2022-08-08T13:06:14.471Z,5.40
2022-08-08T13:07:03.075Z,3.50
2022-08-08T13:08:03.245Z,5.80
2022-08-08T13:08:53.486Z,3.00
2022-08-08T13:10:04.162Z,2.90
2022-08-08T13:10:46.017Z,3.80
2022-08-08T13:12:32.016Z,5.60
2022-08-08T13:13:06.204Z,3.80
2022-08-08T13:13:40.149Z,8.80
2022-08-08T13:14:16.924Z,3.00
2022-08-08T13:14:53.014Z,3.20
2022-08-08T13:15:29.623Z,3.70
2022-08-08T13:16:21.826Z,4.20
2022-08-08T13:16:59.423Z,4.90
2022-08-08T13:18:08.973Z,7.00
2022-08-08T13:18:27.650Z,5.90
2022-08-08T13:19:09.224Z,3.80
2022-08-08T13:19:50.172Z,3.90
2022-08-08T13:20:45.490Z,3.20
2022-08-08T13:21:17.346Z,4.00
2022-08-08T13:21:55.653Z,2.90
2022-08-08T13:22:37.297Z,3.70
2022-08-08T13:23:41.448Z,7.10
2022-08-08T13:24:19.007Z,4.60
2022-08-08T13:25:05.524Z,5.90
2022-08-08T13:25:38.530Z,2.60
2022-08-08T13:26:14.774Z,2.40
2022-08-08T13:26:46.866Z,5.10
2022-08-08T13:27:35.305Z,5.70
2022-08-08T13:28:08.214Z,3.20
2022-08-08T13:28:42.325Z,3.50
2022-08-08T13:29:15.330Z,3.50
2022-08-08T13:29:56.295Z,4.70
2022-08-08T13:30:29.955Z,6.30
2022-08-08T13:31:04.463Z,2.70
2022-08-08T13:31:47.017Z,7.20
2022-08-08T13:32:25.545Z,5.90
2022-08-08T13:33:00.822Z,2.90
2022-08-08T13:33:42.364Z,5.60
2022-08-08T13:34:33.246Z,3.20
2022-08-08T13:35:24.736Z,3.00
2022-08-08T13:36:01.859Z,4.60
2022-08-08T13:36:40.257Z,3.00
2022-08-08T13:37:19.857Z,3.30
2022-08-08T13:38:13.024Z,4.90
2022-08-08T13:38:46.003Z,5.70
2022-08-08T13:39:20.770Z,5.00
2022-08-08T13:39:55.069Z,4.70
2022-08-08T13:40:28.087Z,7.20
2022-08-08T13:41:00.381Z,7.40
2022-08-08T13:41:39.398Z,5.40
2022-08-08T13:42:17.249Z,3.10
2022-08-08T13:42:49.326Z,3.70
2022-08-08T13:43:23.013Z,4.30
2022-08-08T13:43:58.676Z,6.90
2022-08-08T13:44:31.331Z,6.90
2022-08-08T13:45:04.541Z,6.10
2022-08-08T13:45:36.830Z,2.40
2022-08-08T13:46:26.361Z,7.40
2022-08-08T13:47:03.679Z,3.30
2022-08-08T13:47:39.987Z,8.70
2022-08-08T13:48:27.856Z,6.40
2022-08-08T13:50:33.200Z,3.70
2022-08-08T13:50:36.695Z,4.30
2022-08-08T13:50:53.838Z,3.80
2022-08-08T13:51:37.132Z,4.80
2022-08-08T13:52:11.241Z,2.80
2022-08-08T13:52:50.829Z,10.20
2022-08-08T13:53:27.664Z,5.90
2022-08-08T13:54:03.917Z,3.20
2022-08-08T13:54:44.389Z,3.30
2022-08-08T13:55:28.997Z,4.60
2022-08-08T13:56:05.538Z,2.90
2022-08-08T13:56:44.694Z,4.80
2022-08-08T13:58:06.911Z,3.90
2022-08-08T13:58:29.777Z,3.00
2022-08-08T13:59:01.748Z,4.80
2022-08-08T13:59:44.300Z,5.30
2022-08-08T14:00:21.490Z,6.30
2022-08-08T14:00:55.086Z,7.70
2022-08-08T14:01:33.041Z,10.60
2022-08-08T14:02:31.301Z,7.70
2022-08-08T14:03:26.677Z,4.40
2022-08-08T14:03:59.526Z,7.10
2022-08-08T14:04:34.434Z,5.90
2022-08-08T14:05:22.351Z,2.30
2022-08-08T14:06:32.462Z,3.20
2022-08-08T14:07:03.971Z,5.00
2022-08-08T14:07:50.033Z,3.60
2022-08-08T14:08:29.778Z,2.90
2022-08-08T14:09:24.358Z,8.70
2022-08-08T14:10:17.456Z,1.90
2022-08-08T14:11:04.472Z,7.00
2022-08-08T14:11:36.430Z,3.30
2022-08-08T14:12:08.424Z,4.00
2022-08-08T14:12:43.811Z,5.80
2022-08-08T14:13:30.686Z,4.20
2022-08-08T14:14:09.021Z,4.00
2022-08-08T14:14:43.897Z,3.70
2022-08-08T14:15:31.336Z,2.70
2022-08-08T14:16:16.659Z,5.80
2022-08-08T14:16:52.532Z,4.30
2022-08-08T14:17:57.394Z,7.30
2022-08-08T14:18:36.019Z,4.30
2022-08-08T14:19:22.421Z,4.80
2022-08-08T14:20:15.647Z,4.50
2022-08-08T14:21:12.629Z,5.10
2022-08-08T14:21:52.132Z,5.00
2022-08-08T14:22:27.128Z,3.80
2022-08-08T14:23:21.482Z,5.00
2022-08-08T14:24:04.060Z,5.60
2022-08-08T14:24:40.367Z,3.10
2022-08-08T14:25:18.000Z,3.50
2022-08-08T14:26:00.665Z,5.40
2022-08-08T14:26:46.387Z,3.80
2022-08-08T14:27:34.216Z,7.70
2022-08-08T14:28:09.429Z,4.10
2022-08-08T14:28:54.999Z,8.20
2022-08-08T14:29:30.379Z,4.50
2022-08-08T14:30:17.885Z,5.60
2022-08-08T14:30:54.949Z,7.20
2022-08-08T14:32:05.989Z,6.10
2022-08-08T14:32:29.208Z,3.70
2022-08-08T14:33:12.746Z,6.30
2022-08-08T14:33:55.366Z,5.20
2022-08-08T14:34:31.605Z,7.90
2022-08-08T14:35:07.360Z,6.40
2022-08-08T14:35:41.343Z,5.10
2022-08-08T14:36:15.046Z,8.50
2022-08-08T14:36:51.837Z,4.90
2022-08-08T14:37:27.930Z,4.80
2022-08-08T14:38:09.540Z,8.40
2022-08-08T14:38:52.011Z,5.00
2022-08-08T14:39:48.276Z,7.90
2022-08-08T14:40:24.021Z,8.60
2022-08-08T14:40:59.092Z,5.40
2022-08-08T14:41:45.123Z,6.90
2022-08-08T14:42:26.734Z,5.50
2022-08-08T14:43:01.402Z,5.60
2022-08-08T14:44:09.867Z,7.10
2022-08-08T14:44:39.539Z,5.00
2022-08-08T14:45:13.675Z,8.00
2022-08-08T14:46:02.103Z,3.80
2022-08-08T14:46:35.794Z,5.80
2022-08-08T14:47:17.186Z,6.40
2022-08-08T14:48:02.384Z,3.40
2022-08-08T14:48:57.398Z,5.10
2022-08-08T14:49:37.961Z,3.50
2022-08-08T14:50:38.699Z,4.50
2022-08-08T14:51:17.893Z,3.60
2022-08-08T14:51:52.024Z,6.00
2022-08-08T14:52:24.646Z,4.30
2022-08-08T14:52:58.486Z,7.40
2022-08-08T14:53:35.745Z,7.50
2022-08-08T14:54:10.536Z,6.80
2022-08-08T14:54:48.194Z,4.50
2022-08-08T14:55:35.407Z,7.30
2022-08-08T14:56:14.427Z,6.50
2022-08-08T14:56:46.486Z,6.10
2022-08-08T14:57:20.646Z,7.40
2022-08-08T14:58:16.094Z,5.30
2022-08-08T14:58:49.092Z,5.80
2022-08-08T14:59:39.822Z,9.10
2022-08-08T15:00:14.926Z,5.20
2022-08-08T15:00:50.119Z,6.10
2022-08-08T15:01:37.534Z,3.90
2022-08-08T15:02:15.263Z,10.00
2022-08-08T15:02:58.580Z,6.50
2022-08-08T15:03:35.267Z,7.20
2022-08-08T15:04:16.859Z,7.80
2022-08-08T15:04:50.449Z,6.20
2022-08-08T15:05:23.854Z,5.40
2022-08-08T15:06:16.641Z,9.70
2022-08-08T15:06:48.677Z,6.10
2022-08-08T15:07:36.887Z,4.80
2022-08-08T15:08:22.111Z,5.60
2022-08-08T15:09:04.306Z,6.50
2022-08-08T15:09:36.659Z,12.20
2022-08-08T15:10:15.887Z,12.20
2022-08-08T15:10:47.993Z,3.40
2022-08-08T15:11:21.475Z,5.70
2022-08-08T15:11:53.819Z,5.00
2022-08-08T15:12:27.613Z,5.90
2022-08-08T15:13:00.095Z,4.50
2022-08-08T15:13:39.886Z,7.40
2022-08-08T15:14:14.717Z,5.90
2022-08-08T15:14:46.826Z,5.50
2022-08-08T15:16:02.653Z,6.10
2022-08-08T15:16:14.603Z,5.10
2022-08-08T15:16:47.062Z,6.20
2022-08-08T15:17:19.516Z,3.90
2022-08-08T15:17:51.918Z,8.30
2022-08-08T15:18:23.943Z,6.00
2022-08-08T15:19:03.013Z,6.20
2022-08-08T15:19:35.051Z,9.40
2022-08-08T15:20:14.017Z,8.60
2022-08-08T15:20:46.403Z,3.20
2022-08-08T15:21:21.672Z,4.80
2022-08-08T15:21:53.716Z,5.90
2022-08-08T15:22:25.906Z,6.10
2022-08-08T15:22:59.076Z,7.80
2022-08-08T15:23:35.909Z,5.90
2022-08-08T15:24:13.886Z,7.70
2022-08-08T15:24:50.045Z,6.30
2022-08-08T15:25:29.454Z,6.50
2022-08-08T15:26:09.629Z,7.10
2022-08-08T15:26:52.501Z,6.50
2022-08-08T15:28:05.185Z,8.90
2022-08-08T15:28:34.119Z,6.70
2022-08-08T15:29:07.387Z,5.90
2022-08-08T15:29:39.437Z,9.30
2022-08-08T15:30:14.445Z,11.00
2022-08-08T15:30:48.819Z,9.50
2022-08-08T15:31:55.652Z,10.00
2022-08-08T15:32:19.696Z,6.20
2022-08-08T15:32:53.251Z,10.00
2022-08-08T15:33:38.370Z,7.10
2022-08-08T15:34:31.663Z,6.20
2022-08-08T15:35:05.823Z,6.10
2022-08-08T15:35:39.897Z,7.30
2022-08-08T15:36:12.723Z,9.90
2022-08-08T15:36:50.859Z,6.00
2022-08-08T15:37:23.749Z,5.90
2022-08-08T15:37:57.130Z,10.20
2022-08-08T15:38:29.116Z,5.90
2022-08-08T15:39:01.186Z,8.40
2022-08-08T15:39:37.931Z,6.60
2022-08-08T15:40:15.407Z,7.70
2022-08-08T15:40:47.921Z,6.80
2022-08-08T15:41:24.761Z,7.70
2022-08-08T15:42:01.727Z,30.00
2022-08-08T15:42:33.718Z,9.30
2022-08-08T15:43:34.917Z,11.70
2022-08-08T15:44:00.670Z,7.50
2022-08-08T15:44:33.829Z,6.10
2022-08-08T15:45:08.042Z,7.40
2022-08-08T15:45:40.183Z,9.60
2022-08-08T15:46:15.586Z,4.70
2022-08-08T15:46:50.772Z,7.40
2022-08-08T15:47:23.581Z,7.30
2022-08-08T15:48:04.308Z,7.30
2022-08-08T15:48:47.468Z,6.80
2022-08-08T15:49:20.601Z,3.90
2022-08-08T15:49:53.090Z,4.10
2022-08-08T15:50:45.229Z,6.00
2022-08-08T15:51:18.195Z,6.40
2022-08-08T15:51:54.807Z,10.00
2022-08-08T15:52:26.902Z,6.20
2022-08-08T15:52:59.128Z,6.50
2022-08-08T15:53:40.374Z,7.40
2022-08-08T15:54:38.821Z,4.40
2022-08-08T15:55:12.942Z,6.70
2022-08-08T15:55:45.229Z,7.90
2022-08-08T15:56:22.560Z,8.00
2022-08-08T15:56:55.804Z,7.30
2022-08-08T15:57:27.766Z,6.90
2022-08-08T15:58:07.719Z,3.90
2022-08-08T15:58:45.969Z,5.90
2022-08-08T15:59:20.749Z,4.80
2022-08-08T16:00:27.099Z,5.60
2022-08-08T16:01:00.294Z,5.40
2022-08-08T16:01:41.031Z,4.90
2022-08-08T16:02:31.319Z,3.80
2022-08-08T16:03:04.183Z,4.20
2022-08-08T16:03:36.063Z,6.80
2022-08-08T16:04:08.034Z,6.40
2022-08-08T16:04:46.718Z,8.50
2022-08-08T16:05:35.870Z,6.80
2022-08-08T16:06:28.475Z,7.80
2022-08-08T16:07:01.368Z,5.40
2022-08-08T16:07:39.574Z,9.80
2022-08-08T16:08:24.894Z,8.20
2022-08-08T16:13:00.358Z,8.00
2022-08-08T16:13:05.466Z,6.30
2022-08-08T16:13:09.178Z,12.00
2022-08-08T16:13:15.436Z,7.70
2022-08-08T16:13:27.359Z,10.70
2022-08-08T16:13:33.538Z,8.60
2022-08-08T16:14:15.797Z,12.30
2022-08-08T16:14:52.822Z,14.10
2022-08-08T16:15:26.744Z,14.50
2022-08-08T16:16:09.480Z,12.30
2022-08-08T16:16:50.530Z,17.50
2022-08-08T16:17:57.554Z,10.50
2022-08-08T16:18:14.625Z,13.10
2022-08-08T16:18:57.067Z,15.70
2022-08-08T16:19:30.536Z,12.50
2022-08-08T16:20:22.585Z,10.40
2022-08-08T16:21:00.557Z,8.70
2022-08-08T16:21:34.288Z,10.60
2022-08-08T16:22:06.536Z,6.70
2022-08-08T16:22:39.070Z,7.70
2022-08-08T16:23:13.841Z,7.20
2022-08-08T16:23:48.118Z,8.70
2022-08-08T16:24:20.118Z,6.60
2022-08-08T16:24:53.942Z,10.50
2022-08-08T16:25:45.785Z,8.00
2022-08-08T16:26:22.906Z,5.60
2022-08-08T16:27:05.577Z,5.50
2022-08-08T16:27:58.225Z,6.20
2022-08-08T16:28:35.215Z,3.80
2022-08-08T16:29:15.663Z,10.00
2022-08-08T16:30:13.406Z,4.40
2022-08-08T16:30:40.374Z,12.00
2022-08-08T16:31:12.659Z,4.50
2022-08-08T16:31:49.878Z,5.70
2022-08-08T16:32:31.993Z,7.40
2022-08-08T16:33:04.244Z,5.00
2022-08-08T16:33:40.061Z,4.40
2022-08-08T16:34:14.133Z,5.30
2022-08-08T16:34:45.991Z,3.70
2022-08-08T16:35:18.957Z,4.10
2022-08-08T16:35:55.243Z,8.90
2022-08-08T16:36:34.095Z,4.50
2022-08-08T16:37:06.906Z,4.20
2022-08-08T16:37:42.943Z,3.60
2022-08-08T16:38:31.373Z,3.80
2022-08-08T16:39:09.880Z,5.50
2022-08-08T16:40:03.034Z,4.50
2022-08-08T16:40:35.668Z,6.90
2022-08-08T16:41:08.847Z,4.80
2022-08-08T16:41:43.027Z,4.20
2022-08-08T16:42:22.891Z,3.50
2022-08-08T16:42:57.738Z,4.10
2022-08-08T16:43:29.760Z,6.30
2022-08-08T16:44:27.926Z,4.70
2022-08-08T16:45:11.161Z,5.10
2022-08-08T16:46:37.543Z,4.20
2022-08-08T16:46:56.312Z,2.90
2022-08-08T16:47:40.431Z,5.20
2022-08-08T16:48:14.622Z,5.40
2022-08-08T16:48:48.392Z,4.50
2022-08-08T16:49:22.666Z,6.50
2022-08-08T16:50:14.081Z,6.80
2022-08-08T16:50:46.556Z,8.80
2022-08-08T16:55:01.764Z,6.30
2022-08-08T16:55:03.424Z,7.10
2022-08-08T16:55:03.836Z,6.10
2022-08-08T16:55:05.577Z,10.20
2022-08-08T16:55:06.673Z,5.70
2022-08-08T16:55:56.019Z,7.70
2022-08-08T16:56:29.890Z,6.50
2022-08-08T16:57:22.736Z,7.20
2022-08-08T16:58:14.563Z,6.70
2022-08-08T16:58:46.445Z,6.80
2022-08-08T16:59:21.496Z,6.30
2022-08-08T16:59:54.211Z,9.50
2022-08-08T17:00:30.162Z,4.90
2022-08-08T17:01:05.813Z,4.10
2022-08-08T17:01:39.499Z,4.40
2022-08-08T17:02:32.896Z,5.00
2022-08-08T17:03:09.940Z,9.50
2022-08-08T17:03:59.186Z,3.50
2022-08-08T17:04:33.588Z,4.20
2022-08-08T17:05:07.790Z,4.40
2022-08-08T17:05:45.151Z,6.00
2022-08-08T17:06:35.680Z,5.00
2022-08-08T17:07:09.956Z,5.10
2022-08-08T17:07:42.234Z,3.90
2022-08-08T17:08:14.105Z,5.10
2022-08-08T17:08:46.111Z,3.50
2022-08-08T17:09:23.872Z,6.00
2022-08-08T17:10:08.964Z,2.90
2022-08-08T17:10:53.540Z,7.60
2022-08-08T17:11:48.049Z,8.70
2022-08-08T17:12:21.693Z,5.50
2022-08-08T17:13:00.843Z,6.20
2022-08-08T17:13:50.304Z,4.90
2022-08-08T17:14:34.098Z,8.90
2022-08-08T17:15:20.124Z,7.10
2022-08-08T17:15:53.491Z,5.30
2022-08-08T17:16:25.887Z,3.00
2022-08-08T17:17:05.483Z,4.40
2022-08-08T17:18:02.293Z,6.00
2022-08-08T17:18:36.100Z,5.30
2022-08-08T17:19:10.791Z,4.50
2022-08-08T17:19:46.210Z,5.90
2022-08-08T17:20:22.015Z,4.70
2022-08-08T17:20:57.144Z,5.10
2022-08-08T17:21:41.439Z,4.20
2022-08-08T17:22:13.602Z,5.60
2022-08-08T17:22:45.517Z,4.00
2022-08-08T17:23:58.242Z,4.60
2022-08-08T17:24:32.292Z,4.30
2022-08-08T17:25:04.779Z,6.00
2022-08-08T17:25:51.959Z,7.80
2022-08-08T17:26:28.984Z,6.60
2022-08-08T17:27:02.706Z,5.20
2022-08-08T17:27:46.221Z,5.10
2022-08-08T17:28:19.348Z,7.60
2022-08-08T17:29:07.367Z,6.70
2022-08-08T17:29:43.755Z,6.70
2022-08-08T17:30:29.235Z,4.30
2022-08-08T17:31:44.064Z,5.30
2022-08-08T17:31:58.166Z,6.70
2022-08-08T17:32:34.299Z,5.40
2022-08-08T17:34:35.026Z,6.50
2022-08-08T17:34:37.385Z,5.50
2022-08-08T17:35:53.664Z,10.20
2022-08-08T17:36:12.547Z,8.20
2022-08-08T17:37:00.463Z,5.90
2022-08-08T17:37:35.931Z,5.50
2022-08-08T17:38:07.891Z,6.70
2022-08-08T17:38:42.866Z,7.10
2022-08-08T17:39:45.732Z,4.40
2022-08-08T17:40:15.093Z,7.80
2022-08-08T17:40:48.951Z,5.30
2022-08-08T17:41:23.033Z,6.60
2022-08-08T17:42:03.332Z,5.90
2022-08-08T17:42:36.818Z,4.60
2022-08-08T17:43:08.722Z,6.30
2022-08-08T17:44:01.318Z,5.50
2022-08-08T17:44:34.187Z,4.50
2022-08-08T17:45:22.181Z,4.80
2022-08-08T17:45:55.774Z,6.90
2022-08-08T17:46:44.167Z,3.60
2022-08-08T17:47:24.049Z,7.80
2022-08-08T17:47:57.021Z,4.40
2022-08-08T17:48:31.973Z,4.60
2022-08-08T17:49:05.776Z,5.50
2022-08-08T17:49:43.437Z,7.00
2022-08-08T17:50:16.518Z,5.10
2022-08-08T17:50:48.424Z,6.90
2022-08-08T17:51:20.384Z,9.40
2022-08-08T17:51:53.582Z,2.00
2022-08-08T17:52:27.491Z,9.00
2022-08-08T17:53:00.061Z,5.10
2022-08-08T17:53:43.327Z,7.90
2022-08-08T17:54:22.277Z,3.70
2022-08-08T17:54:59.039Z,7.80
2022-08-08T17:56:04.814Z,6.20
2022-08-08T17:56:22.855Z,5.30
2022-08-08T17:56:58.521Z,4.20
2022-08-08T17:57:35.461Z,6.70
2022-08-08T17:58:08.065Z,6.00
2022-08-08T17:58:39.961Z,5.40
2022-08-08T17:59:12.660Z,9.60
2022-08-08T17:59:45.846Z,5.50
2022-08-08T18:00:19.712Z,7.10
2022-08-08T18:00:58.061Z,5.30
2022-08-08T18:01:51.088Z,6.30
2022-08-08T18:02:28.760Z,4.60
2022-08-08T18:03:08.452Z,7.10
2022-08-08T18:03:41.878Z,7.70
2022-08-08T18:04:29.051Z,7.30
2022-08-08T18:05:04.943Z,7.10
2022-08-08T18:05:49.655Z,5.70
2022-08-08T18:06:30.679Z,5.90
2022-08-08T18:08:04.064Z,8.10
2022-08-08T18:08:48.558Z,9.90
2022-08-08T18:09:31.513Z,9.70
2022-08-08T18:10:11.043Z,5.80
2022-08-08T18:10:43.043Z,8.80
2022-08-08T18:11:16.979Z,4.50
2022-08-08T18:11:51.188Z,9.00
2022-08-08T18:12:23.279Z,6.40
2022-08-08T18:12:55.755Z,6.10
2022-08-08T18:13:27.544Z,5.70
2022-08-08T18:14:18.836Z,5.00
2022-08-08T18:14:53.703Z,5.90
2022-08-08T18:15:26.186Z,5.60
2022-08-08T18:16:04.648Z,6.20
2022-08-08T18:16:39.019Z,3.20
2022-08-08T18:17:17.199Z,4.80
2022-08-08T18:18:09.775Z,7.90
2022-08-08T18:18:45.498Z,7.40
2022-08-08T18:19:24.836Z,4.60
2022-08-08T18:20:36.620Z,5.50
2022-08-08T18:20:59.352Z,4.40
2022-08-08T18:21:59.735Z,4.80
2022-08-08T18:22:37.468Z,6.40
2022-08-08T18:23:16.624Z,4.60
2022-08-08T18:23:55.670Z,8.10
2022-08-08T18:24:30.167Z,6.40
2022-08-08T18:25:02.564Z,3.90
2022-08-08T18:25:37.469Z,5.90
2022-08-08T18:26:09.791Z,4.60
2022-08-08T18:26:41.893Z,6.60
2022-08-08T18:27:18.755Z,4.10
2022-08-08T18:27:50.632Z,5.80
2022-08-08T18:28:25.403Z,8.10
2022-08-08T18:28:57.965Z,4.70
2022-08-08T18:29:34.747Z,4.80
2022-08-08T18:30:08.020Z,5.30
2022-08-08T18:30:40.933Z,6.10
2022-08-08T18:31:13.145Z,8.10
2022-08-08T18:31:45.470Z,6.00
2022-08-08T18:32:20.431Z,6.00
2022-08-08T18:32:52.280Z,5.10
2022-08-08T18:34:12.478Z,6.70
2022-08-08T18:34:27.098Z,6.40
2022-08-08T18:34:59.673Z,3.40
2022-08-08T18:35:41.483Z,4.90
2022-08-08T18:36:18.983Z,30.60
2022-08-08T18:36:55.592Z,6.30
2022-08-08T18:37:48.089Z,4.70
2022-08-08T18:38:19.381Z,6.80
2022-08-08T18:38:51.396Z,5.00
2022-08-08T18:39:28.552Z,4.90
2022-08-08T18:40:01.349Z,4.30
2022-08-08T18:40:35.492Z,7.10
2022-08-08T18:41:07.597Z,5.10
2022-08-08T18:41:51.636Z,8.20
2022-08-08T18:42:29.655Z,9.30
2022-08-08T18:43:02.348Z,9.90
2022-08-08T18:43:48.253Z,5.60
2022-08-08T18:44:20.421Z,8.10
2022-08-08T18:44:55.445Z,45.30
2022-08-08T18:45:45.137Z,34.70
2022-08-08T18:46:54.321Z,26.40
2022-08-08T18:47:13.750Z,17.90
2022-08-08T18:47:48.687Z,32.00
2022-08-08T18:48:20.965Z,28.10
2022-08-08T18:48:58.253Z,6.00
2022-08-08T18:49:32.495Z,6.90
2022-08-08T18:50:13.205Z,12.20
2022-08-08T18:50:58.028Z,13.60
2022-08-08T18:51:53.713Z,8.30
2022-08-08T18:52:23.626Z,5.20
2022-08-08T18:52:57.398Z,6.40
2022-08-08T18:54:00.576Z,5.20
2022-08-08T18:54:22.402Z,7.40
2022-08-08T18:55:09.620Z,5.50
2022-08-08T18:55:44.045Z,9.30
2022-08-08T18:56:32.143Z,63.30
2022-08-08T18:57:04.311Z,90.90
2022-08-08T18:57:44.700Z,101.10
2022-08-08T18:58:17.764Z,80.60
2022-08-08T18:58:53.550Z,50.20
2022-08-08T18:59:34.365Z,45.80
2022-08-08T19:00:15.408Z,22.40
2022-08-08T19:00:50.203Z,10.80
2022-08-08T19:02:25.238Z,9.90
2022-08-08T19:02:28.313Z,3.40
2022-08-08T19:03:06.270Z,4.30
2022-08-08T19:04:05.274Z,4.40
2022-08-08T19:04:32.214Z,4.80
2022-08-08T19:05:08.204Z,7.20
2022-08-08T19:05:45.105Z,4.60
2022-08-08T19:06:18.729Z,7.60
2022-08-08T19:06:51.926Z,4.20
2022-08-08T19:07:29.733Z,6.80
2022-08-08T19:08:25.570Z,8.10
2022-08-08T19:09:01.755Z,4.90
2022-08-08T19:09:48.931Z,5.90
2022-08-08T19:10:41.179Z,9.50
2022-08-08T19:11:13.549Z,8.50
2022-08-08T19:11:55.622Z,28.40
2022-08-08T19:12:28.933Z,48.90
2022-08-08T19:13:00.983Z,57.00
2022-08-08T19:13:52.773Z,49.40
2022-08-08T19:14:28.167Z,39.60
2022-08-08T19:15:00.684Z,21.80
2022-08-08T19:15:34.339Z,22.70
2022-08-08T19:16:06.675Z,15.60
2022-08-08T19:16:41.253Z,15.10
2022-08-08T19:17:28.742Z,14.10
2022-08-08T19:18:33.213Z,5.60
2022-08-08T19:19:02.242Z,11.00
2022-08-08T19:19:37.369Z,6.00
2022-08-08T19:20:51.401Z,5.10
2022-08-08T19:21:31.020Z,8.60
2022-08-08T19:22:05.696Z,13.50
2022-08-08T19:22:38.203Z,6.90
2022-08-08T19:23:10.601Z,10.40
2022-08-08T19:23:42.539Z,42.20
2022-08-08T19:24:42.004Z,214.80
2022-08-08T19:26:02.295Z,180.30
2022-08-08T19:26:19.672Z,153.70
2022-08-08T19:26:53.127Z,116.40
2022-08-08T19:27:57.137Z,123.70
2022-08-08T19:28:20.277Z,76.80
2022-08-08T19:28:53.561Z,28.80
2022-08-08T19:29:25.761Z,22.50
2022-08-08T19:29:57.699Z,22.60
2022-08-08T19:30:29.710Z,19.60
2022-08-08T19:31:09.013Z,18.20
2022-08-08T19:31:41.969Z,12.20
2022-08-08T19:32:22.886Z,17.70
2022-08-08T19:32:58.132Z,20.60
2022-08-08T19:33:51.669Z,13.70
2022-08-08T19:34:36.186Z,21.00
2022-08-08T19:35:13.450Z,26.10
2022-08-08T19:36:08.644Z,31.40
2022-08-08T19:36:37.775Z,30.30
2022-08-08T19:37:16.006Z,33.20
2022-08-08T19:37:57.324Z,31.60
2022-08-08T19:38:30.031Z,19.70
2022-08-08T19:39:01.974Z,19.80
2022-08-08T19:39:35.737Z,14.00
2022-08-08T19:40:16.258Z,14.20
2022-08-08T19:40:54.362Z,14.30
2022-08-08T19:41:29.496Z,8.00
2022-08-08T19:42:01.696Z,13.60
2022-08-08T19:42:33.679Z,14.10
2022-08-08T19:43:11.608Z,11.20
2022-08-08T19:43:56.224Z,8.00
2022-08-08T19:44:42.643Z,6.70
2022-08-08T19:45:58.919Z,10.10
2022-08-08T19:46:14.032Z,5.80
2022-08-08T19:46:46.154Z,6.30
2022-08-08T19:47:24.773Z,3.00
2022-08-08T19:47:57.300Z,4.00
2022-08-08T19:48:30.996Z,7.90
2022-08-08T19:49:03.543Z,5.50
2022-08-08T19:49:37.722Z,2.50
2022-08-08T19:50:14.837Z,5.80
2022-08-08T19:50:47.031Z,3.60
2022-08-08T19:51:25.023Z,3.40
2022-08-08T19:52:07.244Z,3.80
2022-08-08T19:52:54.390Z,4.60
2022-08-08T19:53:53.213Z,3.70
2022-08-08T19:54:19.492Z,3.30
2022-08-08T19:54:56.100Z,2.40
2022-08-08T19:55:34.072Z,4.00
2022-08-08T19:56:08.527Z,4.20
2022-08-08T19:56:49.001Z,1.80
2022-08-08T19:57:21.481Z,6.60
2022-08-08T19:57:57.528Z,7.40
2022-08-08T19:58:30.703Z,4.50
2022-08-08T19:59:03.298Z,4.40
2022-08-08T19:59:35.810Z,2.40
2022-08-08T20:00:30.421Z,3.70
2022-08-08T20:01:04.645Z,4.70
2022-08-08T20:02:01.042Z,5.70
2022-08-08T20:02:32.921Z,5.70
2022-08-08T20:03:14.742Z,5.60
2022-08-08T20:04:01.437Z,4.10
2022-08-08T20:04:35.899Z,4.50
2022-08-08T20:05:12.059Z,4.80
2022-08-08T20:06:15.203Z,2.80
2022-08-08T20:06:36.500Z,3.20
2022-08-08T20:08:30.227Z,5.00
2022-08-08T20:08:38.766Z,6.10
2022-08-08T20:08:56.580Z,3.20
2022-08-08T20:09:29.946Z,4.60
2022-08-08T20:10:06.995Z,2.80
2022-08-08T20:10:39.048Z,4.10
2022-08-08T20:11:11.356Z,5.80
2022-08-08T20:11:43.368Z,4.10
2022-08-08T20:12:15.817Z,2.90
2022-08-08T20:14:10.241Z,4.10
2022-08-08T20:14:32.241Z,2.80
2022-08-08T20:14:53.347Z,1.80
2022-08-08T20:15:25.472Z,2.80
2022-08-08T20:16:18.788Z,4.30
2022-08-08T20:16:53.092Z,3.30
2022-08-08T20:17:36.505Z,5.00
2022-08-08T20:18:15.724Z,3.70
2022-08-08T20:18:53.189Z,3.60
2022-08-08T20:19:25.887Z,2.30
2022-08-08T20:20:09.701Z,2.40
2022-08-08T20:20:42.637Z,2.80
2022-08-08T20:21:16.315Z,3.20
2022-08-08T20:21:57.890Z,2.10
2022-08-08T20:22:33.068Z,3.20
2022-08-08T20:23:05.491Z,3.60
2022-08-08T20:23:44.679Z,6.90
2022-08-08T20:24:18.568Z,3.90
2022-08-08T20:24:51.998Z,5.00
2022-08-08T20:25:29.895Z,3.00
2022-08-08T20:26:03.861Z,3.90
2022-08-08T20:26:38.494Z,4.80
2022-08-08T20:27:43.965Z,6.40
2022-08-08T20:28:18.811Z,2.40
2022-08-08T20:28:52.990Z,1.80
2022-08-08T20:29:25.570Z,2.30
2022-08-08T20:30:53.239Z,4.20
2022-08-08T20:31:10.573Z,2.90
2022-08-08T20:32:07.543Z,10.10
2022-08-08T20:32:34.951Z,7.40
2022-08-08T20:33:19.863Z,4.00
2022-08-08T20:34:27.284Z,3.10
2022-08-08T20:34:38.267Z,3.90
2022-08-08T20:35:23.036Z,2.80
2022-08-08T20:36:07.703Z,4.10
2022-08-08T20:36:41.067Z,3.00
2022-08-08T20:37:15.269Z,4.80
2022-08-08T20:37:53.554Z,3.70
2022-08-08T20:38:32.218Z,3.40
2022-08-08T20:39:06.478Z,4.60
2022-08-08T20:39:51.136Z,5.20
2022-08-08T20:40:39.026Z,3.80
2022-08-08T20:41:17.790Z,7.40
2022-08-08T20:41:52.471Z,6.90
2022-08-08T20:42:29.006Z,4.20
2022-08-08T20:43:01.779Z,5.80
2022-08-08T20:43:49.760Z,3.00
2022-08-08T20:44:25.229Z,3.70
2022-08-08T20:44:58.299Z,8.80
2022-08-08T20:45:55.022Z,3.20
2022-08-08T20:46:25.441Z,5.80
2022-08-08T20:46:58.323Z,4.30
2022-08-08T20:47:35.970Z,3.90
2022-08-08T20:48:09.087Z,6.20
2022-08-08T20:48:41.089Z,4.90
2022-08-08T20:49:13.125Z,4.40
2022-08-08T20:49:46.679Z,6.10
2022-08-08T20:50:19.413Z,6.60
2022-08-08T20:50:56.894Z,6.00
2022-08-08T20:51:32.328Z,6.90
2022-08-08T20:52:05.186Z,3.30
2022-08-08T20:52:37.566Z,3.30
2022-08-08T20:53:16.371Z,3.70
2022-08-08T20:53:58.964Z,5.20
2022-08-08T20:54:33.336Z,4.30
2022-08-08T20:55:07.755Z,5.00
2022-08-08T20:55:52.461Z,3.70
2022-08-08T20:56:35.185Z,3.30
2022-08-08T20:57:18.876Z,6.80
2022-08-08T20:57:53.126Z,6.20
2022-08-08T20:58:25.008Z,3.80
2022-08-08T20:58:58.538Z,4.50
2022-08-08T20:59:31.317Z,3.40
2022-08-08T21:00:05.297Z,5.70
2022-08-08T21:00:41.252Z,6.10
2022-08-08T21:01:19.590Z,4.60
2022-08-08T21:02:06.602Z,7.10
2022-08-08T21:02:39.931Z,4.50
2022-08-08T21:03:16.770Z,3.00
2022-08-08T21:03:55.697Z,5.20
2022-08-08T21:04:32.246Z,3.80
2022-08-08T21:05:05.019Z,3.70
2022-08-08T21:05:58.746Z,4.50
2022-08-08T21:06:53.207Z,2.70
2022-08-08T21:07:28.789Z,2.80
2022-08-08T21:08:36.719Z,4.30
2022-08-08T21:09:07.812Z,4.20
2022-08-08T21:09:48.467Z,3.60
2022-08-08T21:10:32.308Z,2.50
2022-08-08T21:11:04.185Z,6.80
2022-08-08T21:11:50.612Z,3.70
2022-08-08T21:12:33.148Z,2.70
2022-08-08T21:13:08.591Z,5.90
2022-08-08T21:13:43.189Z,2.90
2022-08-08T21:14:15.066Z,3.50
2022-08-08T21:14:49.237Z,5.20
2022-08-08T21:16:04.677Z,4.10
2022-08-08T21:16:20.540Z,3.80
2022-08-08T21:17:05.872Z,2.40
2022-08-08T21:17:38.452Z,2.80
2022-08-08T21:18:12.218Z,5.50
2022-08-08T21:18:45.998Z,2.70
2022-08-08T21:19:17.874Z,3.20
2022-08-08T21:19:49.706Z,3.80
2022-08-08T21:20:34.111Z,5.10
2022-08-08T21:21:20.423Z,3.80
2022-08-08T21:22:01.725Z,3.60
2022-08-08T21:22:33.866Z,4.50
2022-08-08T21:23:09.001Z,3.00
2022-08-08T21:24:02.462Z,2.60
2022-08-08T21:24:35.263Z,3.80
2022-08-08T21:25:13.496Z,5.30
2022-08-08T21:25:48.959Z,3.10
2022-08-08T21:26:27.212Z,3.40
2022-08-08T21:26:59.709Z,4.10
2022-08-08T21:28:05.679Z,5.80
2022-08-08T21:28:33.465Z,4.00
2022-08-08T21:29:07.969Z,3.30
2022-08-08T21:30:03.962Z,2.80
2022-08-08T21:30:38.091Z,7.30
2022-08-08T21:31:22.843Z,4.60
2022-08-08T21:31:59.223Z,3.80
2022-08-08T21:32:32.632Z,3.10
2022-08-08T21:33:10.857Z,4.50
2022-08-08T21:33:43.548Z,5.30
2022-08-08T21:34:18.662Z,4.30
2022-08-08T21:34:50.982Z,4.00
2022-08-08T21:36:18.149Z,4.20
2022-08-08T21:36:28.639Z,4.20
2022-08-08T21:37:06.782Z,3.70
2022-08-08T21:37:54.174Z,2.80
2022-08-08T21:38:27.459Z,2.70
2022-08-08T21:38:59.815Z,3.20
2022-08-08T21:39:54.700Z,4.30
2022-08-08T21:40:31.082Z,4.30
2022-08-08T21:41:03.664Z,3.60
2022-08-08T21:41:42.919Z,5.10
2022-08-08T21:42:23.647Z,3.30
2022-08-08T21:42:55.657Z,3.70
2022-08-08T21:43:33.396Z,5.30
2022-08-08T21:44:06.459Z,2.60
2022-08-08T21:44:38.299Z,3.20
2022-08-08T21:48:01.969Z,3.80
2022-08-08T21:48:04.626Z,3.00
2022-08-08T21:48:06.371Z,3.30
2022-08-08T21:48:12.933Z,6.50
2022-08-08T21:48:53.312Z,3.40
2022-08-08T21:49:26.119Z,6.00
2022-08-08T21:49:59.863Z,4.10
2022-08-08T21:50:31.856Z,4.70
2022-08-08T21:51:10.239Z,4.00
2022-08-08T21:54:17.694Z,2.60
2022-08-08T21:54:22.485Z,4.90
2022-08-08T21:54:33.582Z,2.40